Time;durP1;ratioP1;P1;durP2;ratioP2;P2;SDS_P1;SDS_P2;PMS_P1;PMS_P2;Temp;Humidity;BMP_temperature;BMP_pressure;BME280_temperature;BME280_humidity;BME280_pressure;Samples;Min_cycle;Max_cycle;Signal;HPM_P1;HPM_P2
2023/02/12 00:02:07;;;;;;;;;;;;;;;;;;5113200;28;19908;-47
2023/02/12 00:04:32;;;;;;;;;;;;;;;;;;5112761;28;19918;-47
2023/02/12 00:06:58;;;;;;;;;;;;;;;;;;5112257;28;19995;-48
2023/02/12 00:09:24;;;;;;;;;;;;;;;;;;5120261;28;20352;-46
2023/02/12 00:11:50;;;;;;;;;;;;;;;;;;5132528;28;20379;-47
2023/02/12 00:14:16;;;;;;;;;;;;;;;;;;5118496;28;19957;-48
2023/02/12 00:16:42;;;;;;;;;;;;;;;;;;5119287;28;19911;-46
2023/02/12 00:19:08;;;;;;;;;;;;;;;;;;5132467;28;19911;-47
2023/02/12 00:21:34;;;;;;;;;;;;;;;;;;5130208;28;20001;-47
2023/02/12 00:24:00;;;;;;;;;;;;;;;;;;5112166;28;20109;-47
2023/02/12 00:26:26;;;;;;;;;;;;;;;;;;5112271;28;19966;-47
2023/02/12 00:28:52;;;;;;;;;;;;;;;;;;5116022;28;19955;-46
2023/02/12 00:31:18;;;;;;;;;;;;;;;;;;5120594;28;19915;-48
2023/02/12 00:33:44;;;;;;;;;;;;;;;;;;5094068;28;19908;-48
2023/02/12 00:36:10;;;;;;;;;;;;;;;;;;5125766;27;19911;-47
2023/02/12 00:38:35;;;;;;;;;;;;;;;;;;5118101;27;20380;-46
2023/02/12 00:41:01;;;;;;;;;;;;;;;;;;5120019;27;19908;-50
2023/02/12 00:43:27;;;;;;;;;;;;;;;;;;5134826;27;19921;-47
2023/02/12 00:45:53;;;;;;;;;;;;;;;;;;5117142;27;19912;-46
2023/02/12 00:48:19;;;;;;;;;;;;;;;;;;5134146;27;19911;-47
2023/02/12 00:50:45;;;;;;;;;;;;;;;;;;5124696;27;19911;-46
2023/02/12 00:53:11;;;;;;;;;;;;;;;;;;5097434;28;20394;-48
2023/02/12 00:55:37;;;;;;;;;;;;;;;;;;5115497;27;19911;-47
2023/02/12 00:58:03;;;;;;;;;;;;;;;;;;5115449;28;19915;-48
2023/02/12 01:00:29;;;;;;;;;;;;;;;;;;5116691;27;19911;-47
2023/02/12 01:02:55;;;;;;;;;;;;;;;;;;5132646;27;20287;-48
2023/02/12 01:05:21;;;;;;;;;;;;;;;;;;5133857;27;19915;-48
2023/02/12 01:07:47;;;;;;;;;;;;;;;;;;5134937;27;19915;-48
2023/02/12 01:10:12;;;;;;;;;;;;;;;;;;5135238;27;19911;-47
2023/02/12 01:12:38;;;;;;;;;;;;;;;;;;5119117;27;20002;-47
2023/02/12 01:15:04;;;;;;;;;;;;;;;;;;5115129;27;20344;-47
2023/02/12 01:17:30;;;;;;;;;;;;;;;;;;5115879;27;20396;-47
2023/02/12 01:19:57;;;;;;;;;;;;;;;;;;5115316;28;19918;-46
2023/02/12 01:22:23;;;;;;;;;;;;;;;;;;5115012;28;19912;-46
2023/02/12 01:24:48;;;;;;;;;;;;;;;;;;5116035;27;20368;-45
2023/02/12 01:27:14;;;;;;;;;;;;;;;;;;5121482;27;19918;-47
2023/02/12 01:29:43;;;;;;;;;;;;;;;;;;5134892;27;19950;-45
2023/02/12 01:32:09;;;;;;;;;;;;;;;;;;5117642;27;19947;-45
2023/02/12 01:34:35;;;;;;;;;;;;;;;;;;5118059;27;19951;-47
2023/02/12 01:37:01;;;;;;;;;;;;;;;;;;5120316;27;19950;-46
2023/02/12 01:39:27;;;;;;;;;;;;;;;;;;5135183;27;19962;-46
2023/02/12 01:41:52;;;;;;;;;;;;;;;;;;5135296;27;20336;-47
2023/02/12 01:44:19;;;;;;;;;;;;;;;;;;5134810;27;19962;-46
2023/02/12 01:46:45;;;;;;;;;;;;;;;;;;5132731;27;19998;-46
2023/02/12 01:49:11;;;;;;;;;;;;;;;;;;5133024;27;19989;-46
2023/02/12 01:51:37;;;;;;;;;;;;;;;;;;5114985;27;20374;-46
2023/02/12 01:54:03;;;;;;;;;;;;;;;;;;5116472;27;20382;-47
2023/02/12 01:56:30;;;;;;;;;;;;;;;;;;5114319;27;19912;-47
2023/02/12 01:58:56;;;;;;;;;;;;;;;;;;5114254;27;19911;-47
2023/02/12 02:01:22;;;;;;;;;;;;;;;;;;5121890;27;19915;-47
2023/02/12 02:03:48;;;;;;;;;;;;;;;;;;5132907;27;19915;-46
2023/02/12 02:06:14;;;;;;;;;;;;;;;;;;5132662;27;19912;-45
2023/02/12 02:08:40;;;;;;;;;;;;;;;;;;5133012;27;19937;-46
2023/02/12 02:14:31;;;;;;;;;;;;;;;;;;5134200;27;19945;-47
2023/02/12 02:16:48;;;;;;;;;;;;;;;;;;5133693;27;19976;-46
2023/02/12 02:19:14;;;;;;;;;;;;;;;;;;5132486;27;19911;-47
2023/02/12 02:21:40;;;;;;;;;;;;;;;;;;5134181;27;19908;-44
2023/02/12 02:24:06;;;;;;;;;;;;;;;;;;5115709;27;20363;-46
2023/02/12 02:26:32;;;;;;;;;;;;;;;;;;5134303;27;19907;-49
2023/02/12 02:28:58;;;;;;;;;;;;;;;;;;5114066;27;19940;-46
2023/02/12 02:31:24;;;;;;;;;;;;;;;;;;5108141;28;20370;-46
2023/02/12 02:33:50;;;;;;;;;;;;;;;;;;5128871;27;20306;-48
2023/02/12 02:36:16;;;;;;;;;;;;;;;;;;5132546;27;20405;-46
2023/02/12 02:38:42;;;;;;;;;;;;;;;;;;5125625;22;19924;-49
2023/02/12 02:41:08;;;;;;;;;;;;;;;;;;5113413;28;19908;-49
2023/02/12 02:43:33;;;;;;;;;;;;;;;;;;5113228;28;19920;-49
2023/02/12 02:45:59;;;;;;;;;;;;;;;;;;5113602;28;19914;-50
2023/02/12 02:48:25;;;;;;;;;;;;;;;;;;5104325;28;19908;-50
2023/02/12 02:50:51;;;;;;;;;;;;;;;;;;5093082;28;19961;-50
2023/02/12 02:53:17;;;;;;;;;;;;;;;;;;5093066;28;19977;-51
2023/02/12 02:55:43;;;;;;;;;;;;;;;;;;5092714;28;19909;-52
2023/02/12 02:58:09;;;;;;;;;;;;;;;;;;5091870;28;19968;-52
2023/02/12 03:00:35;;;;;;;;;;;;;;;;;;5093069;28;20299;-49
2023/02/12 03:03:01;;;;;;;;;;;;;;;;;;5092404;28;20422;-50
2023/02/12 03:05:27;;;;;;;;;;;;;;;;;;5092549;28;19926;-50
2023/02/12 03:07:53;;;;;;;;;;;;;;;;;;5092051;28;19934;-49
2023/02/12 03:10:19;;;;;;;;;;;;;;;;;;5092617;28;20273;-50
2023/02/12 03:12:44;;;;;;;;;;;;;;;;;;5090832;28;19912;-49
2023/02/12 03:15:10;;;;;;;;;;;;;;;;;;5092154;28;19915;-49
2023/02/12 03:17:36;;;;;;;;;;;;;;;;;;5092471;28;20016;-49
2023/02/12 03:20:02;;;;;;;;;;;;;;;;;;5092379;28;20007;-49
2023/02/12 03:22:28;;;;;;;;;;;;;;;;;;5092006;28;20376;-50
2023/02/12 03:24:54;;;;;;;;;;;;;;;;;;5091915;28;20002;-49
2023/02/12 03:27:20;;;;;;;;;;;;;;;;;;5092056;28;19954;-50
2023/02/12 03:29:46;;;;;;;;;;;;;;;;;;5092154;28;19920;-50
2023/02/12 03:32:12;;;;;;;;;;;;;;;;;;5090743;28;19912;-51
2023/02/12 03:34:38;;;;;;;;;;;;;;;;;;5091053;28;19908;-52
2023/02/12 03:37:03;;;;;;;;;;;;;;;;;;5091329;28;19915;-50
2023/02/12 03:39:30;;;;;;;;;;;;;;;;;;5080565;28;19939;-50
2023/02/12 03:41:55;;;;;;;;;;;;;;;;;;5072072;28;19923;-49
2023/02/12 03:44:21;;;;;;;;;;;;;;;;;;5071814;28;20019;-49
2023/02/12 03:46:47;;;;;;;;;;;;;;;;;;5070809;28;19962;-49
2023/02/12 03:49:13;;;;;;;;;;;;;;;;;;5070657;28;19908;-50
2023/02/12 03:51:39;;;;;;;;;;;;;;;;;;5074543;28;19917;-51
2023/02/12 03:54:05;;;;;;;;;;;;;;;;;;5090484;28;19969;-49
2023/02/12 03:56:31;;;;;;;;;;;;;;;;;;5090372;28;19908;-49
2023/02/12 03:58:57;;;;;;;;;;;;;;;;;;5091797;28;19912;-49
2023/02/12 04:01:23;;;;;;;;;;;;;;;;;;5091121;28;20418;-50
2023/02/12 04:03:49;;;;;;;;;;;;;;;;;;5091454;28;20014;-49
2023/02/12 04:06:15;;;;;;;;;;;;;;;;;;5091256;28;19916;-49
2023/02/12 04:08:41;;;;;;;;;;;;;;;;;;5091682;28;20011;-50
2023/02/12 04:11:07;;;;;;;;;;;;;;;;;;5095673;28;19916;-49
2023/02/12 04:13:33;;;;;;;;;;;;;;;;;;5095938;28;19912;-49
2023/02/12 04:15:59;;;;;;;;;;;;;;;;;;5095461;28;19919;-50
2023/02/12 04:18:24;;;;;;;;;;;;;;;;;;5095500;28;19920;-50
2023/02/12 04:20:50;;;;;;;;;;;;;;;;;;5095521;28;19912;-51
2023/02/12 04:23:16;;;;;;;;;;;;;;;;;;5095214;28;19939;-49
2023/02/12 04:25:42;;;;;;;;;;;;;;;;;;5094125;28;20376;-52
2023/02/12 04:28:08;;;;;;;;;;;;;;;;;;5095499;28;19919;-49
2023/02/12 04:30:34;;;;;;;;;;;;;;;;;;5094776;28;20651;-49
2023/02/12 04:33:00;;;;;;;;;;;;;;;;;;5095095;28;19962;-49
2023/02/12 04:35:26;;;;;;;;;;;;;;;;;;5094939;28;19951;-49
2023/02/12 04:37:52;;;;;;;;;;;;;;;;;;5095050;28;19974;-49
2023/02/12 04:40:18;;;;;;;;;;;;;;;;;;5095121;28;19958;-49
2023/02/12 04:42:44;;;;;;;;;;;;;;;;;;5095473;28;19966;-49
2023/02/12 04:45:10;;;;;;;;;;;;;;;;;;5094884;28;20334;-49
2023/02/12 04:47:36;;;;;;;;;;;;;;;;;;5093562;28;19937;-49
2023/02/12 04:50:02;;;;;;;;;;;;;;;;;;5095044;28;19908;-50
2023/02/12 04:52:28;;;;;;;;;;;;;;;;;;5094855;28;19932;-49
2023/02/12 04:54:54;;;;;;;;;;;;;;;;;;5094505;28;19915;-49
2023/02/12 04:57:20;;;;;;;;;;;;;;;;;;5095015;28;19919;-49
2023/02/12 04:59:46;;;;;;;;;;;;;;;;;;5094548;28;19908;-51
2023/02/12 05:02:12;;;;;;;;;;;;;;;;;;5094896;28;20352;-50
2023/02/12 05:04:37;;;;;;;;;;;;;;;;;;5094625;28;20388;-52
2023/02/12 05:07:03;;;;;;;;;;;;;;;;;;5094394;28;19919;-51
2023/02/12 05:09:29;;;;;;;;;;;;;;;;;;5094288;28;19908;-53
2023/02/12 05:11:55;;;;;;;;;;;;;;;;;;5094801;28;19938;-49
2023/02/12 05:14:21;;;;;;;;;;;;;;;;;;5094485;28;19965;-49
2023/02/12 05:16:47;;;;;;;;;;;;;;;;;;5094540;28;19965;-49
2023/02/12 05:19:13;;;;;;;;;;;;;;;;;;5092834;28;19908;-50
2023/02/12 05:21:39;;;;;;;;;;;;;;;;;;5093979;28;20330;-53
2023/02/12 05:24:05;;;;;;;;;;;;;;;;;;5086358;28;19916;-50
2023/02/12 05:26:31;;;;;;;;;;;;;;;;;;5074253;28;19908;-49
2023/02/12 05:28:56;;;;;;;;;;;;;;;;;;5074522;28;19912;-49
2023/02/12 05:31:22;;;;;;;;;;;;;;;;;;5074552;28;19909;-49
2023/02/12 05:33:48;;;;;;;;;;;;;;;;;;5074287;28;19977;-51
2023/02/12 05:36:14;;;;;;;;;;;;;;;;;;5080644;28;19909;-50
2023/02/12 05:38:40;;;;;;;;;;;;;;;;;;5094180;28;19916;-51
2023/02/12 05:41:06;;;;;;;;;;;;;;;;;;5094431;28;20311;-51
2023/02/12 05:43:32;;;;;;;;;;;;;;;;;;5094561;28;20036;-49
2023/02/12 05:45:58;;;;;;;;;;;;;;;;;;5092874;28;19983;-53
2023/02/12 05:48:24;;;;;;;;;;;;;;;;;;5094247;28;19931;-54
2023/02/12 05:50:50;;;;;;;;;;;;;;;;;;5093812;28;20386;-50
2023/02/12 05:53:16;;;;;;;;;;;;;;;;;;5093551;28;20181;-49
2023/02/12 05:55:42;;;;;;;;;;;;;;;;;;5093371;28;19918;-50
2023/02/12 05:58:08;;;;;;;;;;;;;;;;;;5093863;28;19916;-50
2023/02/12 06:00:33;;;;;;;;;;;;;;;;;;5093778;28;19998;-50
2023/02/12 06:02:59;;;;;;;;;;;;;;;;;;5093597;28;20373;-50
2023/02/12 06:05:25;;;;;;;;;;;;;;;;;;5093968;28;19912;-49
2023/02/12 06:07:51;;;;;;;;;;;;;;;;;;5093768;28;19965;-50
2023/02/12 06:10:17;;;;;;;;;;;;;;;;;;5093648;28;20275;-50
2023/02/12 06:12:43;;;;;;;;;;;;;;;;;;5093072;28;19915;-49
2023/02/12 06:15:09;;;;;;;;;;;;;;;;;;5093229;28;19912;-50
2023/02/12 06:17:35;;;;;;;;;;;;;;;;;;5093370;28;19916;-52
2023/02/12 06:20:01;;;;;;;;;;;;;;;;;;5093530;28;20287;-51
2023/02/12 06:22:27;;;;;;;;;;;;;;;;;;5092738;28;20460;-50
2023/02/12 06:24:53;;;;;;;;;;;;;;;;;;5092952;28;20436;-50
2023/02/12 06:27:19;;;;;;;;;;;;;;;;;;5092925;28;20387;-52
2023/02/12 06:29:45;;;;;;;;;;;;;;;;;;5093312;28;19912;-49
2023/02/12 06:32:12;;;;;;;;;;;;;;;;;;5092117;28;19912;-50
2023/02/12 06:34:38;;;;;;;;;;;;;;;;;;5087789;28;19908;-50
2023/02/12 06:37:04;;;;;;;;;;;;;;;;;;5074316;28;20047;-50
2023/02/12 06:39:30;;;;;;;;;;;;;;;;;;5092737;28;20350;-48
2023/02/12 06:41:56;;;;;;;;;;;;;;;;;;5074934;28;19920;-61
2023/02/12 06:44:21;;;;;;;;;;;;;;;;;;5092248;28;19923;-61
2023/02/12 06:46:47;;;;;;;;;;;;;;;;;;5092505;28;19912;-60
2023/02/12 06:49:13;;;;;;;;;;;;;;;;;;5092351;28;19912;-61
2023/02/12 06:51:40;;;;;;;;;;;;;;;;;;5092970;28;20422;-61
2023/02/12 06:54:06;;;;;;;;;;;;;;;;;;5092939;28;20333;-61
2023/02/12 06:56:32;;;;;;;;;;;;;;;;;;5092226;28;19912;-62
2023/02/12 06:58:58;;;;;;;;;;;;;;;;;;5091632;28;20005;-61
2023/02/12 07:01:24;;;;;;;;;;;;;;;;;;5092346;28;20283;-62
2023/02/12 07:03:50;;;;;;;;;;;;;;;;;;5092489;28;19920;-49
2023/02/12 07:06:16;;;;;;;;;;;;;;;;;;5092435;28;19916;-54
2023/02/12 07:08:42;;;;;;;;;;;;;;;;;;5092634;28;19942;-54
2023/02/12 07:11:08;;;;;;;;;;;;;;;;;;5092762;28;19912;-54
2023/02/12 07:13:34;;;;;;;;;;;;;;;;;;5087702;28;19912;-55
2023/02/12 07:16:00;;;;;;;;;;;;;;;;;;5092154;28;20003;-55
2023/02/12 07:18:26;;;;;;;;;;;;;;;;;;5091820;28;19924;-51
2023/02/12 07:20:51;;;;;;;;;;;;;;;;;;5090894;28;20392;-49
2023/02/12 07:23:17;;;;;;;;;;;;;;;;;;5092173;28;19937;-49
2023/02/12 07:25:43;;;;;;;;;;;;;;;;;;5085843;28;20269;-49
2023/02/12 07:28:09;;;;;;;;;;;;;;;;;;5092325;28;19912;-50
2023/02/12 07:30:35;;;;;;;;;;;;;;;;;;5092395;28;20398;-52
2023/02/12 07:33:02;;;;;;;;;;;;;;;;;;5092529;28;19951;-52
2023/02/12 07:35:28;;;;;;;;;;;;;;;;;;5092140;28;19920;-55
2023/02/12 07:37:54;;;;;;;;;;;;;;;;;;5090812;28;19920;-52
2023/02/12 07:40:20;;;;;;;;;;;;;;;;;;5092126;28;19912;-53
2023/02/12 07:42:52;;;;;;;;;;;;;;;;;;5092097;28;20400;-49
2023/02/12 07:45:18;;;;;;;;;;;;;;;;;;5083998;28;19916;-50
2023/02/12 07:47:44;;;;;;;;;;;;;;;;;;5071969;28;19912;-49
2023/02/12 07:50:10;;;;;;;;;;;;;;;;;;5072188;28;20298;-49
2023/02/12 07:52:36;;;;;;;;;;;;;;;;;;5077660;28;19923;-49
2023/02/12 07:55:02;;;;;;;;;;;;;;;;;;5090955;28;20292;-50
2023/02/12 07:57:28;;;;;;;;;;;;;;;;;;5092059;28;19912;-50
2023/02/12 07:59:54;;;;;;;;;;;;;;;;;;5089635;28;20304;-50
2023/02/12 08:02:20;;;;;;;;;;;;;;;;;;5080154;28;20404;-49
2023/02/12 08:04:46;;;;;;;;;;;;;;;;;;5070719;28;19919;-49
2023/02/12 08:07:12;;;;;;;;;;;;;;;;;;5089270;28;19998;-49
2023/02/12 08:09:37;;;;;;;;;;;;;;;;;;5082462;28;19915;-50
2023/02/12 08:12:03;;;;;;;;;;;;;;;;;;5085595;28;20428;-52
2023/02/12 08:14:29;;;;;;;;;;;;;;;;;;5091282;28;20295;-51
2023/02/12 08:16:55;;;;;;;;;;;;;;;;;;5091507;28;19920;-50
2023/02/12 08:19:21;;;;;;;;;;;;;;;;;;5091881;28;20391;-52
2023/02/12 08:21:47;;;;;;;;;;;;;;;;;;5090921;28;19904;-50
2023/02/12 08:24:13;;;;;;;;;;;;;;;;;;5091523;28;19942;-51
2023/02/12 08:26:39;;;;;;;;;;;;;;;;;;5087959;28;19916;-52
2023/02/12 08:29:05;;;;;;;;;;;;;;;;;;5091191;28;19942;-53
2023/02/12 08:31:31;;;;;;;;;;;;;;;;;;5076814;28;20439;-54
2023/02/12 08:33:57;;;;;;;;;;;;;;;;;;5091861;28;19913;-49
2023/02/12 08:36:23;;;;;;;;;;;;;;;;;;5083986;28;19916;-50
2023/02/12 08:38:49;;;;;;;;;;;;;;;;;;5090744;28;19916;-52
2023/02/12 08:41:15;;;;;;;;;;;;;;;;;;5091891;28;20004;-51
2023/02/12 08:43:41;;;;;;;;;;;;;;;;;;5091692;28;19956;-50
2023/02/12 08:46:06;;;;;;;;;;;;;;;;;;5091583;28;19912;-51
2023/02/12 08:48:32;;;;;;;;;;;;;;;;;;5091814;28;19942;-49
2023/02/12 08:50:58;;;;;;;;;;;;;;;;;;5091832;28;19931;-50
2023/02/12 08:53:24;;;;;;;;;;;;;;;;;;5091641;28;19908;-50
2023/02/12 08:55:50;;;;;;;;;;;;;;;;;;5093178;28;19909;-52
2023/02/12 08:58:16;;;;;;;;;;;;;;;;;;5095162;28;20013;-50
2023/02/12 09:00:42;;;;;;;;;;;;;;;;;;5095220;28;20449;-51
2023/02/12 09:03:08;;;;;;;;;;;;;;;;;;5095103;28;19912;-50
2023/02/12 09:05:34;;;;;;;;;;;;;;;;;;5091717;28;19912;-50
2023/02/12 09:08:00;;;;;;;;;;;;;;;;;;5083123;28;19954;-54
2023/02/12 09:10:26;;;;;;;;;;;;;;;;;;5074877;28;19912;-52
2023/02/12 09:12:52;;;;;;;;;;;;;;;;;;5093233;28;19908;-53
2023/02/12 09:15:18;;;;;;;;;;;;;;;;;;5094576;28;20285;-54
2023/02/12 09:17:44;;;;;;;;;;;;;;;;;;5093323;28;20394;-53
2023/02/12 09:20:10;;;;;;;;;;;;;;;;;;5094841;28;19994;-51
2023/02/12 09:22:37;;;;;;;;;;;;;;;;;;5093323;28;20368;-50
2023/02/12 09:25:02;;;;;;;;;;;;;;;;;;5074733;28;19940;-51
2023/02/12 09:27:28;;;;;;;;;;;;;;;;;;5075935;28;20383;-51
2023/02/12 09:29:54;;;;;;;;;;;;;;;;;;5083112;28;19950;-50
2023/02/12 09:32:20;;;;;;;;;;;;;;;;;;5094589;28;19908;-53
2023/02/12 09:34:46;;;;;;;;;;;;;;;;;;5080909;28;19909;-53
2023/02/12 09:37:12;;;;;;;;;;;;;;;;;;5074249;28;19962;-53
2023/02/12 09:39:39;;;;;;;;;;;;;;;;;;5074591;28;19916;-51
2023/02/12 09:42:05;;;;;;;;;;;;;;;;;;5092191;28;20398;-50
2023/02/12 09:44:31;;;;;;;;;;;;;;;;;;5094360;28;20064;-52
2023/02/12 09:46:57;;;;;;;;;;;;;;;;;;5092926;28;19959;-53
2023/02/12 09:49:23;;;;;;;;;;;;;;;;;;5094048;28;19962;-51
2023/02/12 09:51:50;;;;;;;;;;;;;;;;;;5094267;28;19912;-52
2023/02/12 09:54:16;;;;;;;;;;;;;;;;;;5094247;28;19912;-51
2023/02/12 09:56:42;;;;;;;;;;;;;;;;;;5093893;28;19930;-51
2023/02/12 09:59:08;;;;;;;;;;;;;;;;;;5093892;28;20443;-52
2023/02/12 10:01:33;;;;;;;;;;;;;;;;;;5093979;28;19999;-51
2023/02/12 10:03:59;;;;;;;;;;;;;;;;;;5093839;28;20330;-51
2023/02/12 10:06:26;;;;;;;;;;;;;;;;;;5093543;28;20444;-50
2023/02/12 10:08:52;;;;;;;;;;;;;;;;;;5093829;28;19908;-51
2023/02/12 10:11:17;;;;;;;;;;;;;;;;;;5092565;28;19937;-51
2023/02/12 10:13:44;;;;;;;;;;;;;;;;;;5093616;28;19999;-50
2023/02/12 10:16:10;;;;;;;;;;;;;;;;;;5093580;28;20432;-50
2023/02/12 10:18:36;;;;;;;;;;;;;;;;;;5093744;28;19912;-51
2023/02/12 10:21:02;;;;;;;;;;;;;;;;;;5093463;28;20022;-53
2023/02/12 10:23:27;;;;;;;;;;;;;;;;;;5093692;28;19951;-51
2023/02/12 10:25:53;;;;;;;;;;;;;;;;;;5093417;28;19908;-52
2023/02/12 10:28:19;;;;;;;;;;;;;;;;;;5093487;28;19908;-52
2023/02/12 10:30:45;;;;;;;;;;;;;;;;;;5093601;28;19912;-51
2023/02/12 10:33:11;;;;;;;;;;;;;;;;;;5093469;28;19931;-53
2023/02/12 10:35:37;;;;;;;;;;;;;;;;;;5091161;28;20880;-54
2023/02/12 10:38:03;;;;;;;;;;;;;;;;;;5090073;28;19924;-54
2023/02/12 10:40:31;;;;;;;;;;;;;;;;;;5088808;28;19920;-50
2023/02/12 10:42:57;;;;;;;;;;;;;;;;;;5089922;28;20372;-50
2023/02/12 10:45:23;;;;;;;;;;;;;;;;;;5092754;28;19943;-50
2023/02/12 10:47:49;;;;;;;;;;;;;;;;;;5092451;28;19954;-53
2023/02/12 10:50:15;;;;;;;;;;;;;;;;;;5093222;28;19959;-53
2023/02/12 10:52:41;;;;;;;;;;;;;;;;;;5093173;28;19908;-50
2023/02/12 10:55:07;;;;;;;;;;;;;;;;;;5092953;28;20280;-51
2023/02/12 10:57:33;;;;;;;;;;;;;;;;;;5091536;28;19912;-50
2023/02/12 10:59:59;;;;;;;;;;;;;;;;;;5091684;28;19935;-54
2023/02/12 11:02:25;;;;;;;;;;;;;;;;;;5091007;28;20020;-51
2023/02/12 11:04:51;;;;;;;;;;;;;;;;;;5091331;28;19912;-50
2023/02/12 11:07:17;;;;;;;;;;;;;;;;;;5091445;28;20387;-52
2023/02/12 11:09:46;;;;;;;;;;;;;;;;;;5091234;28;19908;-56
2023/02/12 11:12:12;;;;;;;;;;;;;;;;;;5091334;28;19915;-53
2023/02/12 11:14:38;;;;;;;;;;;;;;;;;;5091167;28;19908;-55
2023/02/12 11:17:04;;;;;;;;;;;;;;;;;;5092460;28;19931;-53
2023/02/12 11:19:30;;;;;;;;;;;;;;;;;;5092045;28;20017;-50
2023/02/12 11:21:56;;;;;;;;;;;;;;;;;;5092602;28;19916;-50
2023/02/12 11:24:22;;;;;;;;;;;;;;;;;;5090954;28;19957;-55
2023/02/12 11:26:47;;;;;;;;;;;;;;;;;;5092533;28;19915;-50
2023/02/12 11:29:13;;;;;;;;;;;;;;;;;;5092453;28;20418;-53
2023/02/12 11:31:40;;;;;;;;;;;;;;;;;;5092400;28;19909;-52
2023/02/12 11:34:06;;;;;;;;;;;;;;;;;;5092298;28;19973;-49
2023/02/12 11:36:32;;;;;;;;;;;;;;;;;;5091862;28;20300;-51
2023/02/12 11:38:58;;;;;;;;;;;;;;;;;;5092141;28;19920;-50
2023/02/12 11:41:24;;;;;;;;;;;;;;;;;;5092524;28;19934;-50
2023/02/12 11:43:49;;;;;;;;;;;;;;;;;;5092302;28;19912;-51
2023/02/12 11:46:15;;;;;;;;;;;;;;;;;;5092128;28;20308;-50
2023/02/12 11:48:43;;;;;;;;;;;;;;;;;;5091244;28;20380;-50
2023/02/12 11:51:09;;;;;;;;;;;;;;;;;;5090773;28;19912;-53
2023/02/12 11:53:35;;;;;;;;;;;;;;;;;;5091514;28;19939;-52
2023/02/12 11:56:01;;;;;;;;;;;;;;;;;;5091477;28;19912;-50
2023/02/12 11:58:27;;;;;;;;;;;;;;;;;;5081199;28;20448;-50
2023/02/12 12:00:52;;;;;;;;;;;;;;;;;;5081420;28;20303;-50
2023/02/12 12:03:18;;;;;;;;;;;;;;;;;;5092173;28;19959;-50
2023/02/12 12:05:44;;;;;;;;;;;;;;;;;;5072787;28;20318;-50
2023/02/12 12:08:10;;;;;;;;;;;;;;;;;;5071836;28;19938;-52
2023/02/12 12:10:36;;;;;;;;;;;;;;;;;;5071897;28;20017;-51
2023/02/12 12:13:02;;;;;;;;;;;;;;;;;;5072233;28;19909;-53
2023/02/12 12:20:58;;;;;;;;;;;;;;;;;;5078618;28;20002;-52
2023/02/12 12:23:24;;;;;;;;;;;;;;;;;;5090151;28;19920;-52
2023/02/12 12:25:49;;;;;;;;;;;;;;;;;;5091308;28;19912;-53
2023/02/12 12:28:15;;;;;;;;;;;;;;;;;;5090239;28;20007;-53
2023/02/12 12:30:41;;;;;;;;;;;;;;;;;;5087803;28;19916;-54
2023/02/12 12:33:07;;;;;;;;;;;;;;;;;;5095437;28;19939;-50
2023/02/12 12:35:33;;;;;;;;;;;;;;;;;;5095637;28;20339;-50
2023/02/12 12:37:59;;;;;;;;;;;;;;;;;;5095468;28;20361;-51
2023/02/12 12:40:25;;;;;;;;;;;;;;;;;;5095658;28;19966;-51
2023/02/12 12:42:51;;;;;;;;;;;;;;;;;;5095351;28;19916;-50
2023/02/12 12:45:17;;;;;;;;;;;;;;;;;;5095054;28;19998;-51
2023/02/12 12:47:43;;;;;;;;;;;;;;;;;;5094542;28;19927;-51
2023/02/12 12:50:09;;;;;;;;;;;;;;;;;;5086348;28;20398;-51
2023/02/12 12:52:35;;;;;;;;;;;;;;;;;;5092226;28;19919;-51
2023/02/12 12:55:01;;;;;;;;;;;;;;;;;;5092310;28;20353;-51
2023/02/12 12:57:27;;;;;;;;;;;;;;;;;;5094589;28;19915;-50
2023/02/12 12:59:53;;;;;;;;;;;;;;;;;;5092948;28;19920;-52
2023/02/12 13:02:19;;;;;;;;;;;;;;;;;;5094717;28;19919;-54
2023/02/12 13:04:47;;;;;;;;;;;;;;;;;;5093460;28;20373;-51
2023/02/12 13:07:12;;;;;;;;;;;;;;;;;;5089163;28;19919;-51
2023/02/12 13:09:38;;;;;;;;;;;;;;;;;;5074799;28;19908;-53
2023/02/12 13:12:04;;;;;;;;;;;;;;;;;;5085163;28;19952;-54
2023/02/12 13:14:30;;;;;;;;;;;;;;;;;;5076429;28;20300;-53
2023/02/12 13:16:56;;;;;;;;;;;;;;;;;;5094929;28;20277;-52
2023/02/12 13:19:22;;;;;;;;;;;;;;;;;;5095046;28;19908;-55
2023/02/12 13:21:48;;;;;;;;;;;;;;;;;;5093322;28;20440;-53
2023/02/12 13:24:14;;;;;;;;;;;;;;;;;;5094621;28;19924;-50
2023/02/12 13:26:40;;;;;;;;;;;;;;;;;;5094367;28;19912;-50
2023/02/12 13:29:06;;;;;;;;;;;;;;;;;;5094727;28;19913;-50
2023/02/12 13:31:32;;;;;;;;;;;;;;;;;;5094637;28;19908;-51
2023/02/12 13:33:58;;;;;;;;;;;;;;;;;;5092998;28;20391;-51
2023/02/12 13:36:24;;;;;;;;;;;;;;;;;;5094298;28;19912;-51
2023/02/12 13:38:50;;;;;;;;;;;;;;;;;;5094384;28;19923;-54
2023/02/12 13:41:16;;;;;;;;;;;;;;;;;;5093968;28;20356;-50
2023/02/12 13:43:41;;;;;;;;;;;;;;;;;;5093939;28;20411;-51
2023/02/12 13:46:07;;;;;;;;;;;;;;;;;;5094079;28;19970;-52
2023/02/12 13:48:33;;;;;;;;;;;;;;;;;;5092698;28;19947;-53
2023/02/12 13:50:59;;;;;;;;;;;;;;;;;;5094232;28;19958;-51
2023/02/12 13:53:25;;;;;;;;;;;;;;;;;;5092948;28;19955;-51
2023/02/12 13:55:51;;;;;;;;;;;;;;;;;;5094095;28;20423;-55
2023/02/12 13:58:38;;;;;;;;;;;10.40;47.10;;;;;;5093743;28;20442;-52
2023/02/12 14:01:07;;;;;;;;;;;21.20;37.70;;;;;;5091235;28;19919;-52
2023/02/12 14:03:34;;;;;;;;;;;21.80;33.60;;;;;;5093897;28;20011;-55
2023/02/12 14:06:12;;;;;;;;;;;21.70;34.50;;;;;;5093811;28;19908;-54
2023/02/12 14:08:38;;;;;;;;;;;;;;;;;;5093556;28;19911;-51
2023/02/12 14:11:04;;;;;;;;;;;;;;;;;;5092591;28;19908;-50
2023/02/12 14:13:33;;;;;;;;;;;;;;;;;;5093416;28;20011;-53
2023/02/12 14:15:59;;;;;;;;;;;;;;;;;;5092443;28;20015;-50
2023/02/12 14:18:25;;;;;;;;;;;;;;;;;;5093566;28;19999;-54
2023/02/12 14:20:51;;;;;;;;;;;;;;;;;;5092767;28;20635;-53
2023/02/12 14:23:17;;;;;;;;;;;;;;;;;;5093472;28;19959;-56
2023/02/12 14:25:43;;;;;;;;;;;;;;;;;;5091748;28;19943;-51
2023/02/12 14:28:09;;;;;;;;;;;;;;;;;;5093102;28;19971;-52
2023/02/12 14:30:35;;;;;;;;;;;;;;;;;;5092876;28;19912;-50
2023/02/12 14:33:01;;;;;;;;;;;;;;;;;;5093407;28;20360;-52
2023/02/12 14:35:27;;;;;;;;;;;;;;;;;;5091783;28;19931;-52
2023/02/12 14:37:53;;;;;;;;;;;;;;;;;;5093365;28;20006;-53
2023/02/12 14:40:19;;;;;;;;;;;;;;;;;;5093016;28;19988;-51
2023/02/12 14:42:45;;;;;;;;;;;;;;;;;;5091590;28;19912;-51
2023/02/12 14:45:11;;;;;;;;;;;;;;;;;;5093006;28;20296;-52
2023/02/12 14:47:37;;;;;;;;;;;;;;;;;;5092592;28;20407;-53
2023/02/12 14:50:02;;;;;;;;;;;;;;;;;;5093063;28;19916;-50
2023/02/12 14:52:28;;;;;;;;;;;;;;;;;;5090944;28;19912;-47
2023/02/12 14:54:54;;;;;;;;;;;;;;;;;;5092783;28;19912;-51
2023/02/12 14:57:20;;;;;;;;;;;;;;;;;;5091393;28;20307;-49
2023/02/12 14:59:46;;;;;;;;;;;;;;;;;;5092131;28;19969;-52
2023/02/12 15:02:12;;;;;;;;;;;;;;;;;;5092506;28;19912;-53
2023/02/12 15:04:38;;;;;;;;;;;;;;;;;;5092028;28;19916;-53
2023/02/12 15:07:07;;;;;;;;;;;;;;;;;;5091817;28;19920;-54
2023/02/12 15:09:35;;;;;;;;;;;;;;;;;;5088612;28;19948;-52
2023/02/12 15:12:01;;;;;;;;;;;;;;;;;;5077091;28;19919;-51
2023/02/12 15:14:27;;;;;;;;;;;;;;;;;;5073881;28;20007;-55
2023/02/12 15:16:52;;;;;;;;;;;;;;;;;;5083198;28;19912;-50
2023/02/12 15:19:18;;;;;;;;;;;;;;;;;;5088499;28;19908;-55
2023/02/12 15:21:47;;;;;;;;;;;;;;;;;;5088202;28;19915;-53
2023/02/12 15:24:13;;;;;;;;;;;;;;;;;;5070860;28;19923;-49
2023/02/12 15:26:39;;;;;;;;;;;;;;;;;;5072140;28;19913;-49
2023/02/12 15:29:05;;;;;;;;;;;;;;;;;;5074025;28;19919;-49
2023/02/12 15:31:31;;;;;;;;;;;;;;;;;;5084075;28;19912;-52
2023/02/12 15:33:57;;;;;;;;;;;;;;;;;;5090446;28;19924;-49
2023/02/12 15:36:23;;;;;;;;;;;;;;;;;;5092130;28;19908;-49
2023/02/12 15:38:49;;;;;;;;;;;;;;;;;;5091502;28;19920;-50
2023/02/12 15:41:15;;;;;;;;;;;;;;;;;;5090695;28;19952;-52
2023/02/12 15:43:41;;;;;;;;;;;;;;;;;;5087365;28;19916;-51
2023/02/12 15:46:07;;;;;;;;;;;;;;;;;;5092014;28;19915;-53
2023/02/12 15:48:33;;;;;;;;;;;;;;;;;;5088405;28;19924;-52
2023/02/12 15:51:14;;;;;;;;;;;21.70;34.40;;;;;;5091522;28;20394;-55
2023/02/12 15:53:40;;;;;;;;;;;19.00;34.20;;;;;;5091153;28;19916;-51
2023/02/12 15:56:06;;;;;;;;;;;;;;;;;;5085819;28;19959;-49
2023/02/12 15:58:32;;;;;;;;;;;;;;;;;;5091393;28;19931;-52
2023/02/12 16:00:57;;;;;;;;;;;;;;;;;;5086169;28;20384;-51
2023/02/12 16:03:23;;;;;;;;;;;;;;;;;;5071812;28;20357;-50
2023/02/12 16:05:49;;;;;;;;;;;;;;;;;;5075502;28;19908;-52
2023/02/12 16:08:15;;;;;;;;;;;;;;;;;;5075953;28;19904;-51
2023/02/12 16:10:42;;;;;;;;;;;;;;;;;;5077065;28;19908;-54
2023/02/12 16:13:08;;;;;;;;;;;;;;;;;;5091849;28;19948;-49
2023/02/12 16:15:37;;;;;;;;;;;;;;;;;;5094815;28;19997;-52
2023/02/12 16:18:03;;;;;;;;;;;;;;;;;;5095973;28;19916;-51
2023/02/12 16:20:29;;;;;;;;;;;;;;;;;;5089303;28;19916;-49
2023/02/12 16:22:55;;;;;;;;;;;;;;;;;;5096057;28;20005;-49
2023/02/12 16:25:21;;;;;;;;;;;;;;;;;;5095807;28;19939;-51
2023/02/12 16:27:47;;;;;;;;;;;;;;;;;;5096223;28;19908;-52
2023/02/12 16:30:13;;;;;;;;;;;;;;;;;;5095820;28;19912;-51
2023/02/12 16:32:39;;;;;;;;;;;;;;;;;;5082984;28;19912;-54
2023/02/12 16:35:05;;;;;;;;;;;;;;;;;;5080653;28;19908;-55
2023/02/12 16:37:31;;;;;;;;;;;;;;;;;;5076399;28;19908;-52
2023/02/12 16:39:58;;;;;;;;;;;;;;;;;;5094335;28;20372;-53
2023/02/12 16:42:28;;;;;;;;;;;;;;;;;;5083076;28;19913;-53
2023/02/12 16:44:53;;;;;;;;;;;;;;;;;;5079431;28;19942;-51